Time;durP1;ratioP1;P1;durP2;ratioP2;P2;SDS_P1;SDS_P2;PMS_P1;PMS_P2;Temp;Humidity;BMP_temperature;BMP_pressure;BME280_temperature;BME280_humidity;BME280_pressure;Samples;Min_cycle;Max_cycle;Signal;HPM_P1;HPM_P2
2022/09/02 00:00:26;;;;;;;3.20;2.47;;;;;;;;;;5139126;27;20050;-87
2022/09/02 00:02:53;;;;;;;2.40;2.20;;;;;;;;;;5117277;27;20770;-87
2022/09/02 00:05:19;;;;;;;2.80;2.35;;;;;;;;;;5152993;27;20041;-87
2022/09/02 00:07:45;;;;;;;2.45;2.25;;;;;;;;;;5124669;27;20085;-87
2022/09/02 00:10:11;;;;;;;2.70;2.30;;;;;;;;;;5130807;27;20482;-88
2022/09/02 00:12:37;;;;;;;3.78;2.20;;;;;;;;;;5140908;27;20047;-86
2022/09/02 00:15:04;;;;;;;2.20;2.10;;;;;;;;;;5134424;27;20042;-86
2022/09/02 00:17:30;;;;;;;2.40;2.20;;;;;;;;;;5142419;27;20134;-86
2022/09/02 00:19:56;;;;;;;2.05;1.95;;;;;;;;;;5136829;27;20122;-88
2022/09/02 00:22:22;;;;;;;2.50;2.30;;;;;;;;;;5123614;27;20410;-88
2022/09/02 00:24:48;;;;;;;4.10;2.50;;;;;;;;;;5117643;27;20512;-87
2022/09/02 00:27:14;;;;;;;3.22;2.25;;;;;;;;;;5125385;27;20071;-87
2022/09/02 00:29:40;;;;;;;2.58;2.38;;;;;;;;;;5117027;27;20085;-87
2022/09/02 00:32:06;;;;;;;2.58;2.30;;;;;;;;;;5131725;27;20066;-88
2022/09/02 00:34:33;;;;;;;3.13;2.28;;;;;;;;;;5146661;27;20034;-87
2022/09/02 00:36:58;;;;;;;3.03;2.08;;;;;;;;;;5143836;27;20045;-86
2022/09/02 00:39:25;;;;;;;2.13;2.03;;;;;;;;;;5129048;27;20438;-86
2022/09/02 00:41:51;;;;;;;2.58;2.17;;;;;;;;;;5156090;27;20457;-86
2022/09/02 00:44:18;;;;;;;2.30;2.17;;;;;;;;;;5132600;27;20107;-86
2022/09/02 00:46:44;;;;;;;3.20;2.10;;;;;;;;;;5136291;27;20076;-86
2022/09/02 00:49:37;;;;;;;3.10;2.15;;;;;;;;;;5124109;27;20051;-86
2022/09/02 00:52:03;;;;;;;2.22;2.03;;;;;;;;;;5125587;27;20077;-87
2022/09/02 00:54:31;;;;;;;2.47;2.28;;;;;;;;;;5131518;27;20410;-86
2022/09/02 00:56:58;;;;;;;3.15;2.10;;;;;;;;;;5129114;27;20110;-86
2022/09/02 00:59:27;;;;;;;3.90;2.10;;;;;;;;;;5140648;27;20069;-86
2022/09/02 01:01:53;;;;;;;3.88;2.17;;;;;;;;;;5148384;27;20042;-86
2022/09/02 01:04:19;;;;;;;2.25;2.15;;;;;;;;;;5144120;27;20043;-87
2022/09/02 01:06:45;;;;;;;3.35;2.17;;;;;;;;;;5142854;27;20129;-87
2022/09/02 01:09:13;;;;;;;2.58;2.20;;;;;;;;;;5134566;27;20058;-85
2022/09/02 01:11:47;;;;;;;2.10;2.00;;;;;;;;;;5120196;27;20042;-86
2022/09/02 01:14:13;;;;;;;3.22;2.50;;;;;;;;;;5117227;27;20035;-86
2022/09/02 01:16:47;;;;;;;3.47;2.13;;;;;;;;;;5132438;27;20126;-86
2022/09/02 01:19:21;;;;;;;2.20;2.10;;;;;;;;;;5142835;27;20135;-87
2022/09/02 01:21:51;;;;;;;2.25;2.15;;;;;;;;;;5128953;27;20048;-87
2022/09/02 01:24:18;;;;;;;2.42;2.17;;;;;;;;;;5120158;27;20051;-87
2022/09/02 01:26:44;;;;;;;3.17;1.90;;;;;;;;;;5149504;27;20050;-86
2022/09/02 01:29:11;;;;;;;2.40;2.20;;;;;;;;;;5135007;27;20034;-87
2022/09/02 01:31:37;;;;;;;1.92;1.83;;;;;;;;;;5137955;27;20146;-85
2022/09/02 01:34:05;;;;;;;3.67;1.92;;;;;;;;;;5142857;27;20058;-86
2022/09/02 01:36:31;;;;;;;2.30;2.10;;;;;;;;;;5148248;27;20072;-86
2022/09/02 01:38:57;;;;;;;2.03;1.90;;;;;;;;;;5144427;27;20574;-87
2022/09/02 01:41:23;;;;;;;2.10;2.00;;;;;;;;;;5148366;27;20114;-86
2022/09/02 01:43:49;;;;;;;2.28;2.08;;;;;;;;;;5117779;27;20046;-87
2022/09/02 01:46:15;;;;;;;2.63;2.22;;;;;;;;;;5153607;27;20026;-85
2022/09/02 01:48:41;;;;;;;2.83;2.30;;;;;;;;;;5137950;27;20030;-87
2022/09/02 01:51:07;;;;;;;2.22;2.03;;;;;;;;;;5131333;27;20061;-87
2022/09/02 01:53:33;;;;;;;11.60;2.53;;;;;;;;;;5118753;27;20130;-87
2022/09/02 01:56:00;;;;;;;2.40;2.20;;;;;;;;;;5125891;27;20039;-87
2022/09/02 01:58:26;;;;;;;3.40;2.17;;;;;;;;;;5121621;27;20039;-87
2022/09/02 02:00:52;;;;;;;2.35;1.92;;;;;;;;;;5139360;27;20035;-87
2022/09/02 02:03:19;;;;;;;2.15;2.00;;;;;;;;;;5157556;27;20520;-87
2022/09/02 02:05:45;;;;;;;2.40;2.17;;;;;;;;;;5125986;27;20047;-86
2022/09/02 02:08:11;;;;;;;2.30;2.10;;;;;;;;;;5126166;27;20046;-86
2022/09/02 02:10:40;;;;;;;2.33;2.00;;;;;;;;;;5151977;27;20074;-86
2022/09/02 02:13:05;;;;;;;3.92;2.00;;;;;;;;;;5135872;27;20034;-86
2022/09/02 02:15:32;;;;;;;2.63;1.80;;;;;;;;;;5157956;27;20046;-86
2022/09/02 02:17:58;;;;;;;2.45;2.15;;;;;;;;;;5125940;27;20050;-87
2022/09/02 02:20:25;;;;;;;3.65;2.10;;;;;;;;;;5129161;27;20047;-86
2022/09/02 02:22:51;;;;;;;2.40;2.20;;;;;;;;;;5126914;27;20545;-87
2022/09/02 02:25:18;;;;;;;3.35;2.00;;;;;;;;;;5125010;27;20039;-86
2022/09/02 02:27:44;;;;;;;2.75;2.10;;;;;;;;;;5119960;27;20170;-86
2022/09/02 02:30:11;;;;;;;2.58;2.10;;;;;;;;;;5127775;27;20118;-87
2022/09/02 02:32:37;;;;;;;3.38;2.10;;;;;;;;;;5139311;27;20053;-87
2022/09/02 02:35:04;;;;;;;2.47;2.28;;;;;;;;;;5133907;27;20249;-86
2022/09/02 02:37:30;;;;;;;3.22;2.20;;;;;;;;;;5141017;27;20560;-87
2022/09/02 02:39:56;;;;;;;2.80;1.98;;;;;;;;;;5129119;27;20051;-87
2022/09/02 02:42:22;;;;;;;2.75;2.10;;;;;;;;;;5141556;27;20083;-86
2022/09/02 02:44:49;;;;;;;2.92;1.95;;;;;;;;;;5136249;27;20275;-86
2022/09/02 02:47:16;;;;;;;2.30;2.10;;;;;;;;;;5120050;27;20054;-85
2022/09/02 02:49:43;;;;;;;2.30;2.10;;;;;;;;;;5149983;27;20038;-86
2022/09/02 02:52:09;;;;;;;2.53;2.10;;;;;;;;;;5123131;27;20046;-88
2022/09/02 02:54:35;;;;;;;2.45;2.25;;;;;;;;;;5139626;27;20046;-86
2022/09/02 02:57:01;;;;;;;2.42;2.08;;;;;;;;;;5140200;27;20043;-86
2022/09/02 02:59:28;;;;;;;2.20;2.00;;;;;;;;;;5127108;27;20054;-86
2022/09/02 03:01:57;;;;;;;2.22;1.98;;;;;;;;;;5128242;27;20051;-87
2022/09/02 03:04:23;;;;;;;2.47;2.17;;;;;;;;;;5149911;27;20034;-87
2022/09/02 03:06:50;;;;;;;2.28;2.00;;;;;;;;;;5139983;27;20039;-86
2022/09/02 03:09:16;;;;;;;2.80;2.30;;;;;;;;;;5118636;27;20149;-86
2022/09/02 03:11:42;;;;;;;3.03;2.28;;;;;;;;;;5147805;27;20047;-86
2022/09/02 03:14:08;;;;;;;2.88;2.30;;;;;;;;;;5120770;27;20047;-86
2022/09/02 03:16:35;;;;;;;2.13;2.03;;;;;;;;;;5132976;27;20055;-85
2022/09/02 03:19:01;;;;;;;3.78;2.30;;;;;;;;;;5153793;27;20387;-86
2022/09/02 03:21:27;;;;;;;4.45;2.22;;;;;;;;;;5146736;27;20070;-88
2022/09/02 03:23:53;;;;;;;2.42;2.22;;;;;;;;;;5122704;27;20043;-87
2022/09/02 03:26:22;;;;;;;2.40;2.20;;;;;;;;;;5131018;27;20092;-85
2022/09/02 03:28:48;;;;;;;2.50;2.25;;;;;;;;;;5124311;27;20117;-86
2022/09/02 03:31:16;;;;;;;4.43;2.95;;;;;;;;;;5151667;27;20091;-86
2022/09/02 03:33:42;;;;;;;2.88;2.28;;;;;;;;;;5148775;27;20042;-86
2022/09/02 03:36:08;;;;;;;2.35;2.15;;;;;;;;;;5125136;27;20047;-86
2022/09/02 03:38:35;;;;;;;2.55;2.35;;;;;;;;;;5147555;27;20130;-86
2022/09/02 03:41:01;;;;;;;2.47;2.38;;;;;;;;;;5155165;27;20034;-86
2022/09/02 03:43:27;;;;;;;2.78;2.40;;;;;;;;;;5127437;27;20051;-86
2022/09/02 03:45:53;;;;;;;5.40;2.30;;;;;;;;;;5124601;27;20049;-86
2022/09/02 03:48:21;;;;;;;2.47;2.28;;;;;;;;;;5125859;27;20118;-86
2022/09/02 03:50:47;;;;;;;2.95;2.40;;;;;;;;;;5142171;27;20516;-86
2022/09/02 03:53:13;;;;;;;3.78;2.35;;;;;;;;;;5122630;27;20031;-86
2022/09/02 03:55:39;;;;;;;2.30;2.10;;;;;;;;;;5124509;27;20051;-86
2022/09/02 03:58:05;;;;;;;2.20;2.10;;;;;;;;;;5137442;27;20042;-86
2022/09/02 04:00:32;;;;;;;2.95;2.38;;;;;;;;;;5147521;27;20082;-86
2022/09/02 04:03:00;;;;;;;2.53;2.25;;;;;;;;;;5137026;27;20043;-86
2022/09/02 04:05:26;;;;;;;2.60;2.40;;;;;;;;;;5132061;27;20038;-86
2022/09/02 04:07:52;;;;;;;2.75;2.33;;;;;;;;;;5120349;27;20500;-87
2022/09/02 04:10:20;;;;;;;2.85;2.30;;;;;;;;;;5132641;27;20169;-85
2022/09/02 04:12:46;;;;;;;3.90;2.42;;;;;;;;;;5134085;27;20042;-86
2022/09/02 04:15:12;;;;;;;2.45;2.28;;;;;;;;;;5146730;27;20043;-86
2022/09/02 04:17:39;;;;;;;2.70;2.50;;;;;;;;;;5114307;27;20398;-86
2022/09/02 04:20:06;;;;;;;2.38;2.20;;;;;;;;;;5141290;27;20231;-87
2022/09/02 04:22:33;;;;;;;2.60;2.38;;;;;;;;;;5141939;27;20047;-86
2022/09/02 04:24:59;;;;;;;3.13;2.50;;;;;;;;;;5145043;27;20058;-86
2022/09/02 04:27:25;;;;;;;2.42;2.33;;;;;;;;;;5142590;27;20045;-85
2022/09/02 04:29:51;;;;;;;2.70;2.50;;;;;;;;;;5150936;27;20042;-86
2022/09/02 04:32:17;;;;;;;3.30;2.17;;;;;;;;;;5134037;27;20161;-85
2022/09/02 04:34:43;;;;;;;2.65;2.40;;;;;;;;;;5111878;27;20374;-86
2022/09/02 04:37:12;;;;;;;2.92;2.72;;;;;;;;;;5131757;27;20046;-86
2022/09/02 04:39:38;;;;;;;3.15;2.40;;;;;;;;;;5123626;27;20046;-86
2022/09/02 04:42:04;;;;;;;2.67;2.47;;;;;;;;;;5114431;27;20043;-86
2022/09/02 04:44:30;;;;;;;2.38;2.20;;;;;;;;;;5108805;27;21747;-86
2022/09/02 04:46:56;;;;;;;3.97;2.60;;;;;;;;;;5126987;27;20043;-86
2022/09/02 04:49:22;;;;;;;5.00;2.55;;;;;;;;;;5114822;27;20058;-86
2022/09/02 04:51:49;;;;;;;3.30;2.25;;;;;;;;;;5127123;27;20043;-85
2022/09/02 04:54:15;;;;;;;2.83;2.40;;;;;;;;;;5127974;27;20043;-86
2022/09/02 04:56:41;;;;;;;2.60;2.40;;;;;;;;;;5113781;27;20089;-86
2022/09/02 04:59:08;;;;;;;2.70;2.50;;;;;;;;;;5132935;27;20043;-86
2022/09/02 05:01:35;;;;;;;2.97;2.40;;;;;;;;;;5121748;27;20058;-86
2022/09/02 05:04:08;;;;;;;2.60;2.40;;;;;;;;;;5135333;27;21519;-85
2022/09/02 05:06:35;;;;;;;2.80;2.60;;;;;;;;;;5114444;27;20078;-86
2022/09/02 05:09:02;;;;;;;2.75;2.50;;;;;;;;;;5132228;27;20094;-87
2022/09/02 05:11:32;;;;;;;2.60;2.33;;;;;;;;;;5142184;27;20051;-87
2022/09/02 05:14:00;;;;;;;3.67;2.58;;;;;;;;;;5144090;27;20043;-86
2022/09/02 05:16:29;;;;;;;3.30;2.92;;;;;;;;;;5125921;27;20058;-86
2022/09/02 05:18:55;;;;;;;6.03;2.70;;;;;;;;;;5151939;27;20066;-87
2022/09/02 05:21:22;;;;;;;4.78;2.75;;;;;;;;;;5117706;27;20047;-86
2022/09/02 05:23:49;;;;;;;3.47;2.42;;;;;;;;;;5130404;27;20066;-87
2022/09/02 05:26:16;;;;;;;3.20;2.70;;;;;;;;;;5118000;27;20416;-86
2022/09/02 05:28:42;;;;;;;3.17;2.60;;;;;;;;;;5142638;27;20079;-86
2022/09/02 05:31:13;;;;;;;2.50;2.30;;;;;;;;;;5120495;27;20039;-87
2022/09/02 05:33:40;;;;;;;2.50;2.30;;;;;;;;;;5144563;27;20126;-87
2022/09/02 05:36:18;;;;;;;2.58;2.38;;;;;;;;;;5139741;27;20074;-88
2022/09/02 05:38:45;;;;;;;4.68;2.70;;;;;;;;;;5140501;27;20118;-87
2022/09/02 05:41:13;;;;;;;2.95;2.55;;;;;;;;;;5141780;27;20081;-88
2022/09/02 05:43:40;;;;;;;3.22;2.60;;;;;;;;;;5123746;27;20067;-89
2022/09/02 05:46:07;;;;;;;5.72;2.83;;;;;;;;;;5146526;27;20038;-87
2022/09/02 05:51:19;;;;;;;5.15;2.75;;;;;;;;;;5137174;27;20043;-85
2022/09/02 05:53:45;;;;;;;3.08;2.78;;;;;;;;;;5161119;27;20046;-86
2022/09/02 05:56:11;;;;;;;2.90;2.67;;;;;;;;;;5160518;27;20091;-86
2022/09/02 05:58:37;;;;;;;2.40;2.20;;;;;;;;;;5147390;27;20035;-85
2022/09/02 06:01:07;;;;;;;3.30;2.80;;;;;;;;;;5148824;27;20035;-87
2022/09/02 06:03:33;;;;;;;5.25;2.60;;;;;;;;;;5167489;27;20058;-86
2022/09/02 06:05:59;;;;;;;4.13;2.63;;;;;;;;;;5140700;27;20043;-87
2022/09/02 06:08:25;;;;;;;3.47;2.63;;;;;;;;;;5137216;27;20125;-85
2022/09/02 06:10:51;;;;;;;2.65;2.45;;;;;;;;;;5151818;27;20042;-85
2022/09/02 06:13:21;;;;;;;2.83;2.60;;;;;;;;;;5137197;27;20401;-85
2022/09/02 06:15:47;;;;;;;2.85;2.65;;;;;;;;;;5124081;27;20053;-86
2022/09/02 06:18:13;;;;;;;5.47;2.35;;;;;;;;;;5121511;27;20042;-86
2022/09/02 06:20:40;;;;;;;2.67;2.47;;;;;;;;;;5141436;27;20038;-86
2022/09/02 06:23:06;;;;;;;2.38;2.28;;;;;;;;;;5137717;27;20058;-87
2022/09/02 06:25:32;;;;;;;2.50;2.38;;;;;;;;;;5118769;27;20047;-86
2022/09/02 06:27:57;;;;;;;2.50;2.30;;;;;;;;;;5135796;27;20042;-86
2022/09/02 06:30:23;;;;;;;4.78;2.80;;;;;;;;;;5118573;27;20422;-85
2022/09/02 06:32:49;;;;;;;3.83;2.50;;;;;;;;;;5139088;27;20150;-86
2022/09/02 06:35:16;;;;;;;2.50;2.40;;;;;;;;;;5139171;27;20069;-86
2022/09/02 06:37:41;;;;;;;2.75;2.50;;;;;;;;;;5116825;27;20047;-87
2022/09/02 06:40:08;;;;;;;2.72;2.45;;;;;;;;;;5120607;27;20426;-86
2022/09/02 06:42:34;;;;;;;3.10;2.83;;;;;;;;;;5123343;27;20055;-86
2022/09/02 06:45:00;;;;;;;2.53;2.33;;;;;;;;;;5137726;27;20038;-86
2022/09/02 06:47:26;;;;;;;2.38;2.28;;;;;;;;;;5123537;27;20046;-86
2022/09/02 06:49:52;;;;;;;3.95;2.50;;;;;;;;;;5119515;27;20074;-86
2022/09/02 06:52:18;;;;;;;3.42;2.72;;;;;;;;;;5122304;27;20046;-86
2022/09/02 06:54:44;;;;;;;2.70;2.10;;;;;;;;;;5134532;27;20050;-87
2022/09/02 06:57:10;;;;;;;3.40;2.58;;;;;;;;;;5139943;27;20086;-87
2022/09/02 06:59:37;;;;;;;3.33;2.40;;;;;;;;;;5130423;27;20121;-87
2022/09/02 07:02:03;;;;;;;6.13;2.67;;;;;;;;;;5147665;27;20039;-86
2022/09/02 07:07:24;;;;;;;3.70;2.22;;;;;;;;;;5117039;27;20223;-86
2022/09/02 07:09:50;;;;;;;2.65;2.45;;;;;;;;;;5132380;27;20554;-86
2022/09/02 07:12:18;;;;;;;3.03;2.40;;;;;;;;;;5127715;27;20077;-86
2022/09/02 07:14:44;;;;;;;5.20;2.80;;;;;;;;;;5154371;27;20046;-87
2022/09/02 07:17:16;;;;;;;2.67;2.35;;;;;;;;;;5127965;27;20043;-86
2022/09/02 07:19:42;;;;;;;2.58;2.25;;;;;;;;;;5128288;27;20406;-86
2022/09/02 07:22:08;;;;;;;2.90;2.20;;;;;;;;;;5125945;27;20054;-87
2022/09/02 07:24:34;;;;;;;2.60;2.40;;;;;;;;;;5149678;27;20046;-86
2022/09/02 07:27:00;;;;;;;2.38;2.13;;;;;;;;;;5143636;27;20050;-87
2022/09/02 07:29:26;;;;;;;5.00;2.30;;;;;;;;;;5132158;27;20053;-86
2022/09/02 07:31:52;;;;;;;2.20;2.10;;;;;;;;;;5131209;27;20042;-86
2022/09/02 07:34:19;;;;;;;2.42;2.22;;;;;;;;;;5127043;27;20551;-86
2022/09/02 07:36:45;;;;;;;2.38;2.20;;;;;;;;;;5143844;27;20046;-87
2022/09/02 07:39:12;;;;;;;2.50;2.30;;;;;;;;;;5133702;27;20118;-85
2022/09/02 07:41:39;;;;;;;2.55;2.10;;;;;;;;;;5131442;27;20046;-85
2022/09/02 07:44:05;;;;;;;3.58;2.40;;;;;;;;;;5141947;27;20507;-86
2022/09/02 07:46:31;;;;;;;2.55;2.30;;;;;;;;;;5146379;27;20130;-86
2022/09/02 07:49:02;;;;;;;2.88;2.40;;;;;;;;;;5154173;27;20070;-86
2022/09/02 07:51:28;;;;;;;3.65;2.28;;;;;;;;;;5151697;27;20077;-86
2022/09/02 07:53:54;;;;;;;2.70;2.50;;;;;;;;;;5134378;27;20039;-88
2022/09/02 07:56:20;;;;;;;2.63;2.30;;;;;;;;;;5127792;27;20109;-84
2022/09/02 07:58:47;;;;;;;3.22;2.38;;;;;;;;;;5125700;27;20505;-85
2022/09/02 08:01:13;;;;;;;3.20;2.15;;;;;;;;;;5151373;27;20034;-85
2022/09/02 08:03:40;;;;;;;2.63;2.42;;;;;;;;;;5147312;27;20042;-86
2022/09/02 08:06:06;;;;;;;2.80;2.45;;;;;;;;;;5146186;27;20462;-86
2022/09/02 08:08:33;;;;;;;2.85;2.20;;;;;;;;;;5146836;27;20038;-86
2022/09/02 08:11:00;;;;;;;3.38;2.30;;;;;;;;;;5129983;27;20047;-86
2022/09/02 08:13:26;;;;;;;2.78;2.40;;;;;;;;;;5143994;27;20062;-86
2022/09/02 08:15:53;;;;;;;2.78;2.00;;;;;;;;;;5152584;27;20042;-87
2022/09/02 08:18:20;;;;;;;2.15;1.95;;;;;;;;;;5132824;27;20047;-85
2022/09/02 08:20:46;;;;;;;3.28;2.10;;;;;;;;;;5145696;27;20091;-89
2022/09/02 08:23:13;;;;;;;2.97;2.25;;;;;;;;;;5134903;27;20055;-86
2022/09/02 08:25:39;;;;;;;8.18;2.25;;;;;;;;;;5130792;27;20098;-87
2022/09/02 08:28:05;;;;;;;3.45;2.10;;;;;;;;;;5124062;27;20035;-86
2022/09/02 08:30:32;;;;;;;4.18;2.20;;;;;;;;;;5124488;27;20043;-88
2022/09/02 08:32:58;;;;;;;3.55;2.20;;;;;;;;;;5126189;27;20047;-86
2022/09/02 08:35:24;;;;;;;2.20;2.10;;;;;;;;;;5127732;27;20050;-87
2022/09/02 08:37:50;;;;;;;3.03;2.50;;;;;;;;;;5129148;27;20043;-86
2022/09/02 08:40:18;;;;;;;3.42;2.10;;;;;;;;;;5131133;27;20035;-87
2022/09/02 08:42:49;;;;;;;3.83;2.20;;;;;;;;;;5133726;27;20043;-88
2022/09/02 08:45:28;;;;;;;2.60;2.08;;;;;;;;;;5135980;27;20443;-87
2022/09/02 08:48:20;;;;;;;2.20;2.10;;;;;;;;;;5123708;27;20100;-88
2022/09/02 08:50:47;;;;;;;3.50;1.88;;;;;;;;;;5132923;27;20085;-88
2022/09/02 08:53:16;;;;;;;2.50;2.08;;;;;;;;;;5134956;27;20039;-88
2022/09/02 08:55:52;;;;;;;2.38;1.90;;;;;;;;;;5130608;27;20054;-88
2022/09/02 08:58:21;;;;;;;2.15;2.00;;;;;;;;;;5129507;27;20176;-87
2022/09/02 09:00:52;;;;;;;2.53;2.20;;;;;;;;;;5128696;27;20058;-89
2022/09/02 09:03:26;;;;;;;3.97;2.25;;;;;;;;;;5119914;27;20039;-87
2022/09/02 09:05:59;;;;;;;1.80;1.70;;;;;;;;;;5129365;27;20043;-88
2022/09/02 09:08:43;;;;;;;2.60;1.95;;;;;;;;;;5120296;27;20051;-88
2022/09/02 09:11:09;;;;;;;;;;;;;;;;;;5132909;27;20441;-87
2022/09/02 09:13:41;;;;;;;2.38;2.20;;;;;;;;;;5133083;27;19923;-88
2022/09/02 09:16:22;;;;;;;2.53;1.77;;;;;;;;;;5131730;27;20032;-89
2022/09/02 09:18:51;;;;;;;2.75;2.00;;;;;;;;;;5131254;27;20150;-88
2022/09/02 09:21:18;;;;;;;2.15;1.95;;;;;;;;;;5131015;27;20343;-88
2022/09/02 09:23:45;;;;;;;3.78;1.90;;;;;;;;;;5107180;27;20055;-87
2022/09/02 09:26:17;;;;;;;2.00;1.90;;;;;;;;;;5106600;27;20490;-88
2022/09/02 09:28:45;;;;;;;1.75;1.65;;;;;;;;;;5107017;27;20483;-87
2022/09/02 09:31:15;;;;;;;2.85;1.70;;;;;;;;;;5102942;27;20040;-88
2022/09/02 09:34:00;;;;;;;1.80;1.70;;;;;;;;;;5105094;27;20032;-87
2022/09/02 09:36:38;;;;;;;2.00;1.80;;;;;;;;;;5105616;28;20044;-87
2022/09/02 09:39:19;;;;;;;2.50;1.73;;;;;;;;;;5103857;28;20044;-88
2022/09/02 09:41:46;;;;;;;2.85;1.67;;;;;;;;;;5103660;28;20530;-88
2022/09/02 09:44:31;;;;;;;1.50;1.40;;;;;;;;;;5106219;28;20055;-89
2022/09/02 09:47:01;;;;;;;1.92;1.60;;;;;;;;;;5103005;28;20502;-87
2022/09/02 09:49:28;;;;;;;3.13;1.70;;;;;;;;;;5104260;28;20047;-87
2022/09/02 09:51:54;;;;;;;2.03;1.70;;;;;;;;;;5103665;28;20052;-87
2022/09/02 09:54:20;;;;;;;2.15;1.70;;;;;;;;;;5108010;28;20066;-86
2022/09/02 09:56:46;;;;;;;2.35;1.30;;;;;;;;;;5105402;27;20445;-87
2022/09/02 09:59:32;;;;;;;1.58;1.27;;;;;;;;;;5108272;28;20051;-87
2022/09/02 10:01:58;;;;;;;3.25;1.35;;;;;;;;;;5101192;28;20047;-90
2022/09/02 10:04:32;;;;;;;3.03;1.60;;;;;;;;;;5105228;28;20048;-89
2022/09/02 10:06:58;;;;;;;4.93;1.55;;;;;;;;;;5108307;28;20040;-88
2022/09/02 10:09:32;;;;;;;1.20;1.20;;;;;;;;;;5107205;28;20036;-90
2022/09/02 10:12:00;;;;;;;1.92;1.40;;;;;;;;;;5105746;28;20036;-89
2022/09/02 10:14:37;;;;;;;1.40;1.25;;;;;;;;;;5109624;28;20044;-89
2022/09/02 10:17:15;;;;;;;6.85;1.30;;;;;;;;;;5103207;28;20040;-88
2022/09/02 10:19:49;;;;;;;1.40;1.30;;;;;;;;;;5107463;28;20122;-90
2022/09/02 10:22:18;;;;;;;1.98;1.45;;;;;;;;;;5109641;27;20081;-89
2022/09/02 10:24:58;;;;;;;2.03;1.30;;;;;;;;;;5132413;27;20098;-92
2022/09/02 10:27:43;;;;;;;2.63;1.30;;;;;;;;;;5123725;27;20508;-89
2022/09/02 10:30:23;;;;;;;1.50;1.40;;;;;;;;;;5142370;27;20088;-89
2022/09/02 10:33:08;;;;;;;3.78;1.50;;;;;;;;;;5119854;27;20039;-89
2022/09/02 10:35:42;;;;;;;3.08;1.23;;;;;;;;;;5118763;27;20055;-91
2022/09/02 10:38:28;;;;;;;1.40;1.30;;;;;;;;;;5125475;27;20482;-90
2022/09/02 10:41:01;;;;;;;3.03;1.38;;;;;;;;;;5152228;27;20050;-90
2022/09/02 10:43:27;;;;;;;1.40;1.20;;;;;;;;;;5154808;27;20031;-91
2022/09/02 10:45:59;;;;;;;4.45;1.30;;;;;;;;;;5125248;27;20245;-90
2022/09/02 10:48:44;;;;;;;1.58;1.48;;;;;;;;;;5147012;27;20062;-91
2022/09/02 10:51:28;;;;;;;2.55;1.40;;;;;;;;;;5131400;27;20039;-90
2022/09/02 10:54:15;;;;;;;4.88;1.60;;;;;;;;;;5119811;27;20047;-92
2022/09/02 10:56:43;;;;;;;3.08;1.15;;;;;;;;;;5092318;27;20046;-89
2022/09/02 10:59:11;;;;;;;1.65;1.55;;;;;;;;;;5144616;27;20471;-91
2022/09/02 11:01:44;;;;;;;1.92;1.20;;;;;;;;;;5126360;27;20157;-90
2022/09/02 11:04:18;;;;;;;2.60;1.30;;;;;;;;;;5128164;27;20115;-89
2022/09/02 11:06:46;;;;;;;3.20;1.60;;;;;;;;;;5147350;27;20139;-90
2022/09/02 11:09:12;;;;;;;1.33;1.10;;;;;;;;;;5150533;27;20751;-89
2022/09/02 11:11:41;;;;;;;1.33;1.33;;;;;;;;;;5141019;27;20039;-83
2022/09/02 11:14:14;;;;;;;4.00;1.48;;;;;;;;;;5126470;27;20165;-80
2022/09/02 11:17:01;;;;;;;1.55;1.45;;;;;;;;;;5144551;27;20481;-86
2022/09/02 11:19:27;;;;;;;1.30;1.20;;;;;;;;;;5147444;27;20049;-90
2022/09/02 11:21:56;;;;;;;2.53;1.33;;;;;;;;;;5147329;27;20039;-88
2022/09/02 11:24:30;;;;;;;2.05;1.40;;;;;;;;;;5131396;27;20101;-87
2022/09/02 11:27:00;;;;;;;1.20;1.10;;;;;;;;;;5127753;27;20087;-87
2022/09/02 11:29:36;;;;;;;3.40;1.40;;;;;;;;;;5146940;27;20131;-87
2022/09/02 11:32:21;;;;;;;2.35;1.30;;;;;;;;;;5143136;27;20078;-90
2022/09/02 11:34:49;;;;;;;1.75;1.25;;;;;;;;;;5125197;27;20492;-88
2022/09/02 11:37:38;;;;;;;2.38;1.30;;;;;;;;;;5153616;27;20052;-90
2022/09/02 11:40:18;;;;;;;4.13;1.25;;;;;;;;;;5132376;27;20130;-88
2022/09/02 11:42:57;;;;;;;3.17;1.27;;;;;;;;;;5146694;27;20429;-87
2022/09/02 11:45:29;;;;;;;1.50;1.30;;;;;;;;;;5125673;27;20357;-88
2022/09/02 11:47:55;;;;;;;1.20;1.20;;;;;;;;;;5123085;27;20037;-89
2022/09/02 11:50:30;;;;;;;2.17;1.40;;;;;;;;;;5128192;27;20050;-88
2022/09/02 11:53:15;;;;;;;2.22;1.33;;;;;;;;;;5130043;27;20030;-88
2022/09/02 11:55:47;;;;;;;3.22;1.40;;;;;;;;;;5132111;27;20130;-88
2022/09/02 11:58:42;;;;;;;3.03;1.17;;;;;;;;;;5147217;27;20039;-86
2022/09/02 12:01:14;;;;;;;1.75;1.55;;;;;;;;;;5106207;27;20050;-89
2022/09/02 12:04:03;;;;;;;1.33;1.23;;;;;;;;;;5157386;27;20046;-88
2022/09/02 12:06:29;;;;;;;2.33;1.33;;;;;;;;;;5131355;27;20414;-89
2022/09/02 12:08:57;;;;;;;3.08;1.50;;;;;;;;;;5140737;27;20043;-89
2022/09/02 12:11:38;;;;;;;2.90;1.40;;;;;;;;;;5123875;27;20031;-88
2022/09/02 12:14:05;;;;;;;2.50;1.33;;;;;;;;;;5149139;27;20440;-88
2022/09/02 12:16:36;;;;;;;1.67;1.35;;;;;;;;;;5124594;27;20046;-88
2022/09/02 12:19:06;;;;;;;1.88;1.20;;;;;;;;;;5125054;27;20039;-90
2022/09/02 12:21:34;;;;;;;1.17;1.17;;;;;;;;;;5119018;27;20049;-88
2022/09/02 12:24:00;;;;;;;2.03;1.10;;;;;;;;;;5128351;27;20047;-90
2022/09/02 12:26:35;;;;;;;3.10;1.30;;;;;;;;;;5124157;27;20077;-90
2022/09/02 12:29:23;;;;;;;1.20;1.10;;;;;;;;;;5126941;27;20069;-89
2022/09/02 12:31:50;;;;;;;3.15;1.20;;;;;;;;;;5128716;28;20063;-89
2022/09/02 12:34:27;;;;;;;1.65;1.30;;;;;;;;;;5146534;27;20043;-88
2022/09/02 12:37:00;;;;;;;2.28;1.30;;;;;;;;;;5134560;27;20047;-88
2022/09/02 12:39:26;;;;;;;;;;;;;;;;;;5132961;27;20053;-89
2022/09/02 12:42:04;;;;;;;1.83;1.35;;;;;;;;;;5146957;27;20009;-89
2022/09/02 12:44:54;;;;;;;1.50;1.40;;;;;;;;;;5124055;27;20099;-89
2022/09/02 12:47:22;;;;;;;3.63;1.30;;;;;;;;;;5131167;27;20072;-86
2022/09/02 12:49:55;;;;;;;1.42;1.33;;;;;;;;;;5144450;27;20050;-89
2022/09/02 12:52:41;;;;;;;2.33;1.52;;;;;;;;;;5146363;27;20027;-86
2022/09/02 12:55:10;;;;;;;1.90;1.48;;;;;;;;;;5137862;27;20539;-90
2022/09/02 12:57:40;;;;;;;2.90;1.50;;;;;;;;;;5140341;27;20567;-89
2022/09/02 13:00:07;;;;;;;4.68;1.58;;;;;;;;;;5139825;27;20482;-90
2022/09/02 13:02:41;;;;;;;1.52;1.40;;;;;;;;;;5144829;27;20142;-88
2022/09/02 13:05:07;;;;;;;1.45;1.35;;;;;;;;;;5149557;27;20397;-89
2022/09/02 13:07:42;;;;;;;1.40;1.30;;;;;;;;;;5144870;27;20448;-89
2022/09/02 13:10:27;;;;;;;2.13;1.38;;;;;;;;;;5138401;27;20035;-88
2022/09/02 13:12:59;;;;;;;1.77;1.45;;;;;;;;;;5145172;27;20042;-88
2022/09/02 13:15:35;;;;;;;1.48;1.38;;;;;;;;;;5139505;27;20637;-88
2022/09/02 13:18:21;;;;;;;1.58;1.20;;;;;;;;;;5123734;27;20442;-91
2022/09/02 13:21:13;;;;;;;2.47;1.50;;;;;;;;;;5129208;27;20054;-90
2022/09/02 13:23:39;;;;;;;2.75;1.42;;;;;;;;;;5083720;27;20189;-84
2022/09/02 13:26:24;;;;;;;2.35;1.40;;;;;;;;;;5108337;27;20101;-85
2022/09/02 13:29:16;;;;;;;3.35;1.70;;;;;;;;;;5118577;28;20845;-87
2022/09/02 13:31:57;;;;;;;1.60;1.50;;;;;;;;;;5096593;28;20059;-88
2022/09/02 13:34:23;;;;;;;3.47;1.42;;;;;;;;;;5112820;28;20437;-89
2022/09/02 13:36:49;;;;;;;1.55;1.45;;;;;;;;;;5105939;28;20175;-91
2022/09/02 13:39:27;;;;;;;1.90;1.40;;;;;;;;;;5110944;28;20478;-90
2022/09/02 13:41:54;;;;;;;2.97;1.35;;;;;;;;;;5107293;27;20059;-92
2022/09/02 13:44:21;;;;;;;1.80;1.40;;;;;;;;;;5111620;27;20036;-91
2022/09/02 13:46:52;;;;;;;3.42;1.50;;;;;;;;;;5103462;28;20101;-90
2022/09/02 13:49:19;;;;;;;1.50;1.40;;;;;;;;;;5103168;27;20050;-91
2022/09/02 13:51:46;;;;;;;1.58;1.42;;;;;;;;;;5112339;28;20096;-91
2022/09/02 13:54:12;;;;;;;1.50;1.30;;;;;;;;;;5106631;27;20117;-90
2022/09/02 13:56:38;;;;;;;2.95;1.48;;;;;;;;;;5106480;27;20051;-89
2022/09/02 13:59:04;;;;;;;1.45;1.35;;;;;;;;;;5106682;27;20046;-90
2022/09/02 14:01:32;;;;;;;1.80;1.70;;;;;;;;;;5107098;27;20513;-90
2022/09/02 14:03:59;;;;;;;2.05;1.40;;;;;;;;;;5099598;27;20333;-87
2022/09/02 14:06:32;;;;;;;2.25;1.55;;;;;;;;;;5112746;28;20059;-91
2022/09/02 14:09:02;;;;;;;1.58;1.35;;;;;;;;;;5108488;27;21680;-89
2022/09/02 14:11:29;;;;;;;1.23;1.10;;;;;;;;;;5104857;27;20483;-90
2022/09/02 14:13:56;;;;;;;1.48;1.38;;;;;;;;;;5112154;27;20513;-85
2022/09/02 14:16:26;;;;;;;3.80;1.27;;;;;;;;;;5125350;28;21641;-89
2022/09/02 14:19:09;;;;;;;1.88;1.40;;;;;;;;;;5125855;27;20099;-90
2022/09/02 14:21:36;;;;;;;3.28;1.30;;;;;;;;;;5107148;28;20176;-92
2022/09/02 14:24:03;;;;;;;1.80;1.17;;;;;;;;;;5110664;28;20399;-91
2022/09/02 14:26:37;;;;;;;1.40;1.30;;;;;;;;;;5111375;27;20063;-91
2022/09/02 14:29:07;;;;;;;3.58;1.15;;;;;;;;;;5109295;28;20035;-92
2022/09/02 14:31:33;;;;;;;1.75;1.20;;;;;;;;;;5101703;28;20044;-89
2022/09/02 14:34:00;;;;;;;1.90;1.20;;;;;;;;;;5106123;28;20205;-90
2022/09/02 14:36:34;;;;;;;1.30;1.20;;;;;;;;;;5106998;28;20173;-90
2022/09/02 14:39:16;;;;;;;1.00;1.00;;;;;;;;;;5103906;28;20040;-90
2022/09/02 14:41:42;;;;;;;;;;;;;;;;;;5102312;28;20559;-90
2022/09/02 14:44:22;;;;;;;2.70;1.23;;;;;;;;;;5102634;27;19931;-87
2022/09/02 14:46:52;;;;;;;2.83;1.13;;;;;;;;;;5102143;27;20036;-91
2022/09/02 14:49:24;;;;;;;2.80;1.15;;;;;;;;;;5099136;28;20180;-93
2022/09/02 14:51:51;;;;;;;1.35;1.17;;;;;;;;;;5100054;27;20136;-90
2022/09/02 14:54:38;;;;;;;1.60;1.38;;;;;;;;;;5098858;27;20043;-92
2022/09/02 14:57:19;;;;;;;1.48;1.13;;;;;;;;;;5107618;28;20084;-91
2022/09/02 14:59:45;;;;;;;2.40;1.35;;;;;;;;;;5107095;28;20039;-91
2022/09/02 15:02:22;;;;;;;1.20;1.15;;;;;;;;;;5109145;27;20054;-92